Time,TemperatureF,DewpointF,PressureIn,WindDirection,WindDirectionDegrees,WindSpeedMPH,WindSpeedGustMPH,Humidity,HourlyPrecipIn,Conditions,Clouds,dailyrainin,SoftwareType,DateUTC
2013-08-02 00:01:00,79.5,68.9,29.83,SSW,212,5.0,6.0,70,0.00,,---,0.00,VWS V14.01,2013-08-02 05:01:00,
2013-08-02 00:06:00,79.5,68.4,29.83,SE,136,2.0,12.0,69,0.00,,---,0.00,VWS V14.01,2013-08-02 05:06:00,
2013-08-02 00:11:00,79.6,68.5,29.82,SSW,203,4.0,12.0,69,0.00,,---,0.00,VWS V14.01,2013-08-02 05:11:00,
2013-08-02 00:16:00,79.7,68.6,29.82,SSW,205,4.0,5.0,69,0.00,,---,0.00,VWS V14.01,2013-08-02 05:16:00,
2013-08-02 00:21:00,79.7,68.6,29.81,SE,134,5.0,9.0,69,0.00,,---,0.00,VWS V14.01,2013-08-02 05:21:00,
2013-08-02 00:26:00,79.6,68.1,29.81,WSW,242,6.0,13.0,68,0.00,,---,0.00,VWS V14.01,2013-08-02 05:26:00,
2013-08-02 00:31:00,79.6,68.1,29.81,SE,128,7.0,9.0,68,0.00,,---,0.00,VWS V14.01,2013-08-02 05:31:00,
2013-08-02 00:35:00,79.6,68.1,29.81,SW,224,8.0,10.0,68,0.00,,---,0.00,VWS V14.01,2013-08-02 05:35:00,
2013-08-02 00:40:00,79.8,68.3,29.81,SSE,159,4.0,14.0,68,0.00,,---,0.00,VWS V14.01,2013-08-02 05:40:00,
2013-08-02 00:45:00,79.9,68.0,29.81,WSW,248,3.0,6.0,67,0.00,,---,0.00,VWS V14.01,2013-08-02 05:45:00,
2013-08-02 00:50:00,80.0,68.1,29.81,SW,219,10.0,12.0,67,0.00,,---,0.00,VWS V14.01,2013-08-02 05:50:00,
2013-08-02 00:55:00,79.9,68.0,29.81,WSW,245,5.0,12.0,67,0.00,,---,0.00,VWS V14.01,2013-08-02 05:55:00,
2013-08-02 01:00:00,79.8,68.3,29.83,SW,226,5.0,7.0,68,0.00,,---,0.00,VWS V14.01,2013-08-02 06:00:00,
2013-08-02 01:05:00,79.5,69.3,29.85,SSW,207,2.0,10.0,71,0.00,,---,0.00,VWS V14.01,2013-08-02 06:05:00,
2013-08-02 01:10:00,78.7,69.3,29.88,WNW,292,6.0,10.0,73,0.00,,---,0.00,VWS V14.01,2013-08-02 06:10:00,
2013-08-02 01:15:00,77.6,70.2,29.91,WNW,288,7.0,7.0,78,0.01,,---,0.01,VWS V14.01,2013-08-02 06:15:00,
2013-08-02 01:20:00,76.2,70.3,29.89,SE,131,2.0,9.0,82,0.11,,---,0.11,VWS V14.01,2013-08-02 06:20:00,
2013-08-02 01:25:00,74.9,70.4,29.87,SE,139,2.0,9.0,86,0.21,,---,0.21,VWS V14.01,2013-08-02 06:25:00,
2013-08-02 01:30:00,74.0,70.6,29.86,NE,41,4.0,9.0,89,0.23,,---,0.23,VWS V14.01,2013-08-02 06:30:00,
2013-08-02 01:35:00,73.6,70.5,29.87,NE,46,7.0,11.0,90,0.23,,---,0.23,VWS V14.01,2013-08-02 06:35:00,
2013-08-02 01:40:00,73.0,70.2,29.88,ESE,104,6.0,11.0,91,0.23,,---,0.23,VWS V14.01,2013-08-02 06:40:00,
2013-08-02 01:45:00,72.8,70.3,29.88,NE,52,2.0,11.0,92,0.23,,---,0.23,VWS V14.01,2013-08-02 06:45:00,
2013-08-02 01:50:00,72.7,70.6,29.88,NE,45,0.0,4.0,93,0.23,,---,0.23,VWS V14.01,2013-08-02 06:50:00,
2013-08-02 01:55:00,72.7,70.6,29.89,NNE,23,3.0,4.0,93,0.23,,---,0.23,VWS V14.01,2013-08-02 06:55:00,
2013-08-02 02:00:00,73.1,70.6,29.90,NE,47,2.0,4.0,92,0.23,,---,0.23,VWS V14.01,2013-08-02 07:00:00,
2013-08-02 02:05:00,73.3,70.8,29.91,NE,56,0.0,2.0,92,0.23,,---,0.23,VWS V14.01,2013-08-02 07:05:00,
2013-08-02 02:10:00,73.5,70.7,29.91,East,81,0.0,4.0,91,0.23,,---,0.23,VWS V14.01,2013-08-02 07:10:00,
2013-08-02 02:15:00,73.7,70.9,29.90,SE,139,0.0,4.0,91,0.23,,---,0.23,VWS V14.01,2013-08-02 07:15:00,
2013-08-02 02:20:00,73.7,71.2,29.88,SE,132,0.0,4.0,92,0.22,,---,0.23,VWS V14.01,2013-08-02 07:20:00,
2013-08-02 02:25:00,73.6,71.1,29.89,WNW,290,1.0,4.0,92,0.22,,---,0.23,VWS V14.01,2013-08-02 07:25:00,
2013-08-02 02:30:00,73.5,71.4,29.90,WNW,295,2.0,4.0,93,0.22,,---,0.23,VWS V14.01,2013-08-02 07:30:00,
2013-08-02 02:35:00,73.3,71.2,29.89,WNW,303,0.0,5.0,93,0.00,,---,0.23,VWS V14.01,2013-08-02 07:35:00,
2013-08-02 02:40:00,73.2,71.1,29.89,West,260,5.0,5.0,93,0.00,,---,0.23,VWS V14.01,2013-08-02 07:40:00,
2013-08-02 02:45:00,72.9,70.8,29.91,NW,316,5.0,13.0,93,0.00,,---,0.23,VWS V14.01,2013-08-02 07:45:00,
2013-08-02 02:50:00,72.6,70.8,29.90,WNW,294,12.0,12.0,94,0.00,,---,0.23,VWS V14.01,2013-08-02 07:50:00,
2013-08-02 02:55:00,72.4,70.6,29.91,NNW,329,5.0,14.0,94,0.00,,---,0.23,VWS V14.01,2013-08-02 07:55:00,
2013-08-02 03:00:00,72.1,70.3,29.91,NE,48,9.0,14.0,94,0.00,,---,0.23,VWS V14.01,2013-08-02 08:00:00,
2013-08-02 03:05:00,71.9,70.1,29.92,North,356,1.0,8.0,94,0.00,,---,0.23,VWS V14.01,2013-08-02 08:05:00,
2013-08-02 03:10:00,71.8,70.0,29.92,NE,46,5.0,8.0,94,0.00,,---,0.23,VWS V14.01,2013-08-02 08:10:00,
2013-08-02 03:15:00,71.7,69.9,29.93,NE,37,3.0,8.0,94,0.00,,---,0.23,VWS V14.01,2013-08-02 08:15:00,
2013-08-02 03:20:00,71.6,70.1,29.93,NNW,337,4.0,11.0,95,0.02,,---,0.25,VWS V14.01,2013-08-02 08:20:00,
2013-08-02 03:25:00,71.7,69.9,29.95,East,79,9.0,16.0,94,0.02,,---,0.25,VWS V14.01,2013-08-02 08:25:00,
2013-08-02 03:30:00,70.6,67.8,29.96,NW,326,4.0,16.0,91,0.02,,---,0.25,VWS V14.01,2013-08-02 08:30:00,
2013-08-02 03:35:00,69.7,67.0,29.97,NE,56,12.0,15.0,91,0.02,,---,0.25,VWS V14.01,2013-08-02 08:35:00,
2013-08-02 03:40:00,68.8,66.4,29.97,NE,39,15.0,19.0,92,0.02,,---,0.25,VWS V14.01,2013-08-02 08:40:00,
2013-08-02 03:45:00,68.4,66.3,29.98,East,94,8.0,19.0,93,0.02,,---,0.25,VWS V14.01,2013-08-02 08:45:00,
2013-08-02 03:50:00,68.2,66.1,29.98,WSW,255,3.0,14.0,93,0.02,,---,0.25,VWS V14.01,2013-08-02 08:50:00,
2013-08-02 03:55:00,67.9,65.8,29.98,SE,142,4.0,15.0,93,0.02,,---,0.25,VWS V14.01,2013-08-02 08:55:00,
2013-08-02 04:01:00,67.8,66.0,29.98,ENE,61,5.0,15.0,94,0.02,,---,0.25,VWS V14.01,2013-08-02 09:01:00,
2013-08-02 04:06:00,67.6,65.8,29.98,ENE,70,7.0,12.0,94,0.02,,---,0.25,VWS V14.01,2013-08-02 09:06:00,
2013-08-02 04:11:00,67.4,65.6,29.98,ENE,66,10.0,15.0,94,0.02,,---,0.25,VWS V14.01,2013-08-02 09:11:00,
2013-08-02 04:16:00,67.1,65.3,29.98,ENE,70,7.0,11.0,94,0.02,,---,0.25,VWS V14.01,2013-08-02 09:16:00,
2013-08-02 04:21:00,66.9,65.1,29.98,East,83,6.0,15.0,94,0.02,,---,0.25,VWS V14.01,2013-08-02 09:21:00,
2013-08-02 04:26:00,66.8,65.0,29.97,ENE,70,11.0,17.0,94,0.02,,---,0.25,VWS V14.01,2013-08-02 09:26:00,
2013-08-02 04:31:00,66.5,64.4,29.96,ENE,65,6.0,14.0,93,0.00,,---,0.25,VWS V14.01,2013-08-02 09:31:00,
2013-08-02 04:36:00,66.4,64.3,29.95,ENE,66,5.0,15.0,93,0.00,,---,0.25,VWS V14.01,2013-08-02 09:36:00,
2013-08-02 04:41:00,66.2,63.8,29.94,NNW,336,10.0,15.0,92,0.00,,---,0.25,VWS V14.01,2013-08-02 09:41:00,
2013-08-02 04:46:00,66.2,63.8,29.93,ENE,70,13.0,13.0,92,0.00,,---,0.25,VWS V14.01,2013-08-02 09:46:00,
2013-08-02 04:48:00,66.2,63.8,29.93,NE,53,7.0,15.0,92,0.00,,---,0.25,VWS V14.01,2013-08-02 09:48:00,
2013-08-02 04:53:00,66.3,63.6,29.92,NE,34,4.0,17.0,91,0.00,,---,0.25,VWS V14.01,2013-08-02 09:53:00,
2013-08-02 04:58:00,66.3,63.6,29.91,ENE,68,8.0,17.0,91,0.00,,---,0.25,VWS V14.01,2013-08-02 09:58:00,
2013-08-02 05:03:00,66.5,63.5,29.91,ENE,68,13.0,13.0,90,0.00,,---,0.25,VWS V14.01,2013-08-02 10:03:00,
2013-08-02 05:08:00,66.6,63.6,29.90,ESE,104,4.0,16.0,90,0.00,,---,0.25,VWS V14.01,2013-08-02 10:08:00,
2013-08-02 05:13:00,66.5,63.8,29.90,ESE,113,8.0,16.0,91,0.00,,---,0.25,VWS V14.01,2013-08-02 10:13:00,
2013-08-02 05:18:00,66.6,63.9,29.89,ESE,119,4.0,8.0,91,0.00,,---,0.25,VWS V14.01,2013-08-02 10:18:00,
2013-08-02 05:23:00,66.7,63.7,29.89,ESE,121,2.0,9.0,90,0.00,,---,0.25,VWS V14.01,2013-08-02 10:23:00,
2013-08-02 05:28:00,66.7,63.7,29.89,ESE,104,1.0,9.0,90,0.00,,---,0.25,VWS V14.01,2013-08-02 10:28:00,
2013-08-02 05:30:00,66.8,63.8,29.89,ENE,70,3.0,9.0,90,0.00,,---,0.25,VWS V14.01,2013-08-02 10:30:00,
2013-08-02 05:31:00,66.8,63.8,29.89,SSE,166,5.0,9.0,90,0.00,,---,0.25,VWS V14.01,2013-08-02 10:31:00,
2013-08-02 05:36:00,66.9,63.6,29.89,SSE,149,6.0,10.0,89,0.00,,---,0.25,VWS V14.01,2013-08-02 10:36:00,
2013-08-02 05:41:00,67.0,63.7,29.90,East,86,0.0,10.0,89,0.00,,---,0.25,VWS V14.01,2013-08-02 10:41:00,
2013-08-02 05:46:00,67.1,63.8,29.90,South,184,5.0,7.0,89,0.00,,---,0.25,VWS V14.01,2013-08-02 10:46:00,
2013-08-02 05:51:00,67.0,64.0,29.89,East,95,3.0,10.0,90,0.00,,---,0.25,VWS V14.01,2013-08-02 10:51:00,
2013-08-02 05:56:00,66.9,64.2,29.89,SSE,162,2.0,10.0,91,0.00,,---,0.25,VWS V14.01,2013-08-02 10:56:00,
2013-08-02 06:01:00,66.7,64.0,29.89,SE,142,5.0,5.0,91,0.00,,---,0.25,VWS V14.01,2013-08-02 11:01:00,
2013-08-02 06:06:00,66.8,64.1,29.89,SE,135,6.0,6.0,91,0.00,,---,0.25,VWS V14.01,2013-08-02 11:06:00,
2013-08-02 06:11:00,66.8,64.1,29.90,SE,135,6.0,6.0,91,0.00,,---,0.25,VWS V14.01,2013-08-02 11:11:00,
2013-08-02 06:16:00,66.8,64.1,29.89,SE,135,6.0,6.0,91,0.00,,---,0.25,VWS V14.01,2013-08-02 11:16:00,
2013-08-02 06:21:00,66.8,64.1,29.89,SE,135,6.0,6.0,91,0.00,,---,0.25,VWS V14.01,2013-08-02 11:21:00,
2013-08-02 06:26:00,66.8,64.1,29.88,SE,135,6.0,6.0,91,0.00,,---,0.25,VWS V14.01,2013-08-02 11:26:00,
2013-08-02 06:31:00,66.8,64.1,29.88,SE,135,6.0,6.0,91,0.00,,---,0.25,VWS V14.01,2013-08-02 11:31:00,
2013-08-02 06:36:00,66.8,64.1,29.87,SE,135,6.0,6.0,91,0.00,,---,0.25,VWS V14.01,2013-08-02 11:36:00,
2013-08-02 06:41:00,66.8,64.1,29.87,SE,135,6.0,6.0,91,0.00,,---,0.25,VWS V14.01,2013-08-02 11:41:00,
2013-08-02 06:46:00,66.8,64.1,29.87,SE,135,6.0,6.0,91,0.00,,---,0.25,VWS V14.01,2013-08-02 11:46:00,
2013-08-02 06:51:00,66.8,64.1,29.87,SE,135,6.0,6.0,91,0.00,,---,0.25,VWS V14.01,2013-08-02 11:51:00,
2013-08-02 06:56:00,66.8,64.1,29.87,SE,135,6.0,6.0,91,0.00,,---,0.25,VWS V14.01,2013-08-02 11:56:00,
2013-08-02 07:01:00,66.8,64.1,29.87,SE,135,6.0,6.0,91,0.00,,---,0.25,VWS V14.01,2013-08-02 12:01:00,
2013-08-02 07:06:00,66.8,64.1,29.87,SE,135,6.0,6.0,91,0.00,,---,0.25,VWS V14.01,2013-08-02 12:06:00,
2013-08-02 07:11:00,66.8,64.1,29.87,SE,135,6.0,6.0,91,0.00,,---,0.25,VWS V14.01,2013-08-02 12:11:00,
2013-08-02 07:16:00,66.8,64.1,29.87,SE,135,6.0,6.0,91,0.00,,---,0.25,VWS V14.01,2013-08-02 12:16:00,
2013-08-02 07:21:00,67.7,64.7,29.87,SSE,163,0.0,6.0,90,0.00,,---,0.25,VWS V14.01,2013-08-02 12:21:00,
2013-08-02 07:26:00,67.7,64.7,29.87,South,180,0.0,6.0,90,0.00,,---,0.25,VWS V14.01,2013-08-02 12:26:00,
2013-08-02 07:31:00,68.0,64.6,29.87,South,183,3.0,4.0,89,0.00,,---,0.25,VWS V14.01,2013-08-02 12:31:00,
2013-08-02 07:36:00,68.1,64.7,29.86,South,173,0.0,5.0,89,0.00,,---,0.25,VWS V14.01,2013-08-02 12:36:00,
2013-08-02 07:41:00,68.5,65.1,29.86,SE,136,2.0,7.0,89,0.00,,---,0.25,VWS V14.01,2013-08-02 12:41:00,
2013-08-02 07:46:00,68.9,65.2,29.86,SSW,195,0.0,0.0,88,0.00,,---,0.25,VWS V14.01,2013-08-02 12:46:00,
2013-08-02 07:51:00,69.3,65.6,29.85,ESE,110,4.0,6.0,88,0.00,,---,0.25,VWS V14.01,2013-08-02 12:51:00,
2013-08-02 07:56:00,69.6,65.6,29.86,SE,142,2.0,7.0,87,0.00,,---,0.25,VWS V14.01,2013-08-02 12:56:00,
2013-08-02 08:01:00,70.0,66.0,29.86,SSE,160,2.0,5.0,87,0.00,,---,0.25,VWS V14.01,2013-08-02 13:01:00,
2013-08-02 08:06:00,70.3,65.9,29.86,SE,134,2.0,5.0,86,0.00,,---,0.25,VWS V14.01,2013-08-02 13:06:00,
2013-08-02 08:11:00,70.3,65.9,29.86,SE,140,3.0,7.0,86,0.00,,---,0.25,VWS V14.01,2013-08-02 13:11:00,
2013-08-02 08:16:00,70.2,65.8,29.86,ESE,113,6.0,8.0,86,0.00,,---,0.25,VWS V14.01,2013-08-02 13:16:00,
2013-08-02 08:21:00,70.3,65.9,29.86,SE,129,2.0,8.0,86,0.00,,---,0.25,VWS V14.01,2013-08-02 13:21:00,
2013-08-02 08:26:00,70.3,65.9,29.85,SSE,150,3.0,8.0,86,0.00,,---,0.25,VWS V14.01,2013-08-02 13:26:00,
2013-08-02 08:31:00,70.4,66.0,29.85,South,173,3.0,3.0,86,0.00,,---,0.25,VWS V14.01,2013-08-02 13:31:00,
2013-08-02 08:36:00,71.0,66.3,29.85,East,89,1.0,7.0,85,0.00,,---,0.25,VWS V14.01,2013-08-02 13:36:00,
2013-08-02 08:41:00,71.5,66.4,29.85,SSW,205,2.0,9.0,84,0.00,,---,0.25,VWS V14.01,2013-08-02 13:41:00,
2013-08-02 08:46:00,71.8,66.7,29.84,SE,134,1.0,3.0,84,0.00,,---,0.25,VWS V14.01,2013-08-02 13:46:00,
2013-08-02 08:51:00,72.4,66.9,29.85,SSE,156,2.0,5.0,83,0.00,,---,0.25,VWS V14.01,2013-08-02 13:51:00,
2013-08-02 08:56:00,73.0,66.8,29.85,SSE,153,1.0,8.0,81,0.00,,---,0.25,VWS V14.01,2013-08-02 13:56:00,
2013-08-02 09:01:00,73.1,66.6,29.84,SSE,168,4.0,5.0,80,0.00,,---,0.25,VWS V14.01,2013-08-02 14:01:00,
2013-08-02 09:06:00,73.3,66.8,29.84,SE,131,5.0,9.0,80,0.00,,---,0.25,VWS V14.01,2013-08-02 14:06:00,
2013-08-02 09:11:00,73.8,67.2,29.85,South,169,5.0,9.0,80,0.00,,---,0.25,VWS V14.01,2013-08-02 14:11:00,
2013-08-02 09:16:00,74.2,67.3,29.85,SE,145,4.0,7.0,79,0.00,,---,0.25,VWS V14.01,2013-08-02 14:16:00,
2013-08-02 09:21:00,74.6,67.7,29.84,SE,126,7.0,9.0,79,0.00,,---,0.25,VWS V14.01,2013-08-02 14:21:00,
2013-08-02 09:26:00,74.9,67.6,29.84,SE,136,3.0,9.0,78,0.00,,---,0.25,VWS V14.01,2013-08-02 14:26:00,
2013-08-02 09:31:00,75.2,67.9,29.84,South,184,5.0,5.0,78,0.00,,---,0.25,VWS V14.01,2013-08-02 14:31:00,
2013-08-02 09:36:00,75.6,68.3,29.84,SE,145,1.0,7.0,78,0.00,,---,0.25,VWS V14.01,2013-08-02 14:36:00,
2013-08-02 09:41:00,75.9,68.2,29.84,SE,143,4.0,7.0,77,0.00,,---,0.25,VWS V14.01,2013-08-02 14:41:00,
2013-08-02 09:46:00,76.5,68.8,29.84,South,181,6.0,6.0,77,0.00,,---,0.25,VWS V14.01,2013-08-02 14:46:00,
2013-08-02 09:51:00,77.2,69.1,29.83,SE,138,6.0,6.0,76,0.00,,---,0.25,VWS V14.01,2013-08-02 14:51:00,
2013-08-02 09:56:00,77.9,69.3,29.83,WSW,239,3.0,10.0,75,0.00,,---,0.25,VWS V14.01,2013-08-02 14:56:00,
2013-08-02 10:01:00,78.5,69.1,29.83,SSE,163,4.0,6.0,73,0.00,,---,0.25,VWS V14.01,2013-08-02 15:01:00,
2013-08-02 10:06:00,78.9,69.9,29.83,SW,219,0.0,8.0,74,0.00,,---,0.25,VWS V14.01,2013-08-02 15:06:00,
2013-08-02 10:11:00,79.4,70.0,29.83,SW,216,4.0,8.0,73,0.00,,---,0.25,VWS V14.01,2013-08-02 15:11:00,
2013-08-02 10:16:00,79.8,70.4,29.83,SSE,166,2.0,3.0,73,0.00,,---,0.25,VWS V14.01,2013-08-02 15:16:00,
2013-08-02 10:21:00,80.6,71.2,29.83,SW,224,5.0,6.0,73,0.00,,---,0.25,VWS V14.01,2013-08-02 15:21:00,
2013-08-02 10:25:00,81.1,71.2,29.84,SE,141,2.0,7.0,72,0.00,,---,0.25,VWS V14.01,2013-08-02 15:25:00,
2013-08-02 10:30:00,82.0,71.7,29.83,SE,128,4.0,5.0,71,0.00,,---,0.25,VWS V14.01,2013-08-02 15:30:00,
2013-08-02 10:35:00,82.4,72.1,29.83,SSW,195,3.0,9.0,71,0.00,,---,0.25,VWS V14.01,2013-08-02 15:35:00,
2013-08-02 10:40:00,82.8,72.4,29.83,SSE,157,2.0,9.0,71,0.00,,---,0.25,VWS V14.01,2013-08-02 15:40:00,
2013-08-02 10:45:00,83.2,72.8,29.83,SE,139,7.0,7.0,71,0.00,,---,0.25,VWS V14.01,2013-08-02 15:45:00,
2013-08-02 10:50:00,83.4,73.0,29.83,SSE,157,7.0,9.0,71,0.00,,---,0.25,VWS V14.01,2013-08-02 15:50:00,
2013-08-02 10:55:00,83.6,73.2,29.83,SE,132,3.0,9.0,71,0.00,,---,0.25,VWS V14.01,2013-08-02 15:55:00,
2013-08-02 11:00:00,84.0,73.6,29.83,SE,131,9.0,9.0,71,0.00,,---,0.25,VWS V14.01,2013-08-02 16:00:00,
2013-08-02 11:05:00,84.1,73.7,29.83,South,173,3.0,9.0,71,0.00,,---,0.25,VWS V14.01,2013-08-02 16:05:00,
2013-08-02 11:10:00,84.6,73.7,29.83,South,169,5.0,9.0,70,0.00,,---,0.25,VWS V14.01,2013-08-02 16:10:00,
2013-08-02 11:15:00,84.8,73.9,29.83,SW,222,2.0,3.0,70,0.00,,---,0.25,VWS V14.01,2013-08-02 16:15:00,
2013-08-02 11:20:00,85.0,74.1,29.82,SE,142,8.0,10.0,70,0.00,,---,0.25,VWS V14.01,2013-08-02 16:20:00,
2013-08-02 11:25:00,84.8,73.9,29.82,SE,132,2.0,10.0,70,0.00,,---,0.25,VWS V14.01,2013-08-02 16:25:00,
2013-08-02 11:30:00,84.8,74.4,29.83,SSE,151,7.0,10.0,71,0.00,,---,0.25,VWS V14.01,2013-08-02 16:30:00,
2013-08-02 11:35:00,84.9,74.0,29.83,ESE,121,8.0,12.0,70,0.00,,---,0.25,VWS V14.01,2013-08-02 16:35:00,
2013-08-02 11:40:00,85.4,74.5,29.82,SW,215,3.0,12.0,70,0.00,,---,0.25,VWS V14.01,2013-08-02 16:40:00,
2013-08-02 11:45:00,85.9,74.6,29.83,SE,144,7.0,12.0,69,0.00,,---,0.25,VWS V14.01,2013-08-02 16:45:00,
2013-08-02 11:50:00,86.2,74.4,29.83,SW,219,3.0,13.0,68,0.00,,---,0.25,VWS V14.01,2013-08-02 16:50:00,
2013-08-02 11:55:00,86.3,74.9,29.83,SW,226,3.0,13.0,69,0.00,,---,0.25,VWS V14.01,2013-08-02 16:55:00,
2013-08-02 12:00:00,86.5,74.7,29.82,SE,134,4.0,13.0,68,0.00,,---,0.25,VWS V14.01,2013-08-02 17:00:00,
2013-08-02 12:05:00,86.7,74.9,29.82,SSE,166,1.0,9.0,68,0.00,,---,0.25,VWS V14.01,2013-08-02 17:05:00,
2013-08-02 12:10:00,87.1,74.8,29.82,SSW,208,8.0,9.0,67,0.00,,---,0.25,VWS V14.01,2013-08-02 17:10:00,
2013-08-02 12:15:00,87.5,75.2,29.82,SSW,210,1.0,9.0,67,0.00,,---,0.25,VWS V14.01,2013-08-02 17:15:00,
2013-08-02 12:20:00,87.6,75.3,29.82,WSW,253,1.0,9.0,67,0.00,,---,0.25,VWS V14.01,2013-08-02 17:20:00,
2013-08-02 12:25:00,87.9,75.1,29.82,SSE,160,2.0,9.0,66,0.00,,---,0.25,VWS V14.01,2013-08-02 17:25:00,
2013-08-02 12:30:00,88.1,75.3,29.82,SSE,150,4.0,11.0,66,0.00,,---,0.25,VWS V14.01,2013-08-02 17:30:00,
2013-08-02 12:35:00,88.3,75.5,29.82,SW,231,3.0,6.0,66,0.00,,---,0.25,VWS V14.01,2013-08-02 17:35:00,
2013-08-02 12:40:00,88.6,75.8,29.82,SW,229,0.0,7.0,66,0.00,,---,0.25,VWS V14.01,2013-08-02 17:40:00,
2013-08-02 12:45:00,88.8,75.5,29.82,SSE,150,2.0,9.0,65,0.00,,---,0.25,VWS V14.01,2013-08-02 17:45:00,
2013-08-02 12:50:00,89.0,76.2,29.82,SSE,160,0.0,7.0,66,0.00,,---,0.25,VWS V14.01,2013-08-02 17:50:00,
2013-08-02 12:55:00,89.5,76.2,29.82,South,172,3.0,8.0,65,0.00,,---,0.25,VWS V14.01,2013-08-02 17:55:00,
2013-08-02 13:00:00,89.5,75.7,29.81,SE,142,7.0,8.0,64,0.00,,---,0.25,VWS V14.01,2013-08-02 18:00:00,
2013-08-02 13:05:00,89.6,75.8,29.81,SSE,148,0.0,5.0,64,0.00,,---,0.25,VWS V14.01,2013-08-02 18:05:00,
2013-08-02 13:10:00,90.3,76.0,29.81,SE,136,4.0,8.0,63,0.00,,---,0.25,VWS V14.01,2013-08-02 18:10:00,
2013-08-02 13:15:00,90.5,76.7,29.82,SSW,194,3.0,8.0,64,0.00,,---,0.25,VWS V14.01,2013-08-02 18:15:00,
2013-08-02 13:20:00,90.2,75.9,29.81,South,173,1.0,9.0,63,0.00,,---,0.25,VWS V14.01,2013-08-02 18:20:00,
2013-08-02 13:25:00,90.4,76.6,29.82,SSE,151,2.0,9.0,64,0.00,,---,0.25,VWS V14.01,2013-08-02 18:25:00,
2013-08-02 13:30:00,90.4,75.6,29.82,SW,218,4.0,9.0,62,0.00,,---,0.25,VWS V14.01,2013-08-02 18:30:00,
2013-08-02 13:35:00,89.7,75.4,29.82,WSW,238,0.0,9.0,63,0.00,,---,0.25,VWS V14.01,2013-08-02 18:35:00,
2013-08-02 13:40:00,89.9,76.1,29.82,SSW,203,6.0,9.0,64,0.00,,---,0.25,VWS V14.01,2013-08-02 18:40:00,
2013-08-02 13:45:00,89.9,76.1,29.82,SW,219,0.0,9.0,64,0.00,,---,0.25,VWS V14.01,2013-08-02 18:45:00,
2013-08-02 13:50:00,89.9,76.1,29.82,South,187,0.0,1.0,64,0.00,,---,0.25,VWS V14.01,2013-08-02 18:50:00,
2013-08-02 13:55:00,89.6,75.3,29.81,SW,225,3.0,7.0,63,0.00,,---,0.25,VWS V14.01,2013-08-02 18:55:00,
2013-08-02 14:00:00,89.9,75.6,29.81,WSW,242,0.0,7.0,63,0.00,,---,0.25,VWS V14.01,2013-08-02 19:00:00,
2013-08-02 14:05:00,90.2,76.4,29.81,South,181,1.0,5.0,64,0.00,,---,0.25,VWS V14.01,2013-08-02 19:05:00,
2013-08-02 14:10:00,90.4,77.0,29.81,SW,225,3.0,5.0,65,0.00,,---,0.25,VWS V14.01,2013-08-02 19:10:00,
2013-08-02 14:15:00,90.6,76.8,29.81,SW,226,0.0,5.0,64,0.00,,---,0.25,VWS V14.01,2013-08-02 19:15:00,
2013-08-02 14:20:00,90.4,75.6,29.81,SW,225,0.0,3.0,62,0.00,,---,0.25,VWS V14.01,2013-08-02 19:20:00,
2013-08-02 14:25:00,90.5,76.2,29.81,SW,227,6.0,6.0,63,0.00,,---,0.25,VWS V14.01,2013-08-02 19:25:00,
2013-08-02 14:30:00,91.1,76.8,29.81,SW,232,0.0,7.0,63,0.00,,---,0.25,VWS V14.01,2013-08-02 19:30:00,
2013-08-02 14:35:00,91.8,75.9,29.81,West,280,0.0,6.0,60,0.00,,---,0.25,VWS V14.01,2013-08-02 19:35:00,
2013-08-02 14:40:00,91.2,75.9,29.81,NW,308,0.0,6.0,61,0.00,,---,0.25,VWS V14.01,2013-08-02 19:40:00,
2013-08-02 14:45:00,90.8,76.0,29.81,SSE,148,1.0,6.0,62,0.00,,---,0.25,VWS V14.01,2013-08-02 19:45:00,
2013-08-02 14:50:00,91.5,76.2,29.81,SSE,153,1.0,3.0,61,0.00,,---,0.25,VWS V14.01,2013-08-02 19:50:00,
2013-08-02 14:55:00,92.0,76.1,29.81,SW,233,0.0,3.0,60,0.00,,---,0.25,VWS V14.01,2013-08-02 19:55:00,
2013-08-02 15:00:00,91.5,76.2,29.81,South,170,0.0,6.0,61,0.00,,---,0.25,VWS V14.01,2013-08-02 20:00:00,
2013-08-02 15:05:00,91.7,76.8,29.81,SW,226,0.0,1.0,62,0.00,,---,0.25,VWS V14.01,2013-08-02 20:05:00,
2013-08-02 15:10:00,92.0,76.6,29.81,SSE,148,0.0,1.0,61,0.00,,---,0.25,VWS V14.01,2013-08-02 20:10:00,
2013-08-02 15:15:00,91.8,76.9,29.80,South,191,0.0,1.0,62,0.00,,---,0.25,VWS V14.01,2013-08-02 20:15:00,
2013-08-02 15:20:00,91.9,77.0,29.80,SW,224,0.0,1.0,62,0.00,,---,0.25,VWS V14.01,2013-08-02 20:20:00,
2013-08-02 15:25:00,91.5,77.1,29.80,SSW,210,0.0,1.0,63,0.00,,---,0.25,VWS V14.01,2013-08-02 20:25:00,
2013-08-02 15:30:00,91.5,77.6,29.80,South,180,3.0,3.0,64,0.00,,---,0.25,VWS V14.01,2013-08-02 20:30:00,
2013-08-02 15:35:00,90.9,76.6,29.80,SW,229,4.0,6.0,63,0.00,,---,0.25,VWS V14.01,2013-08-02 20:35:00,
2013-08-02 15:40:00,90.8,76.5,29.80,SW,229,2.0,6.0,63,0.00,,---,0.25,VWS V14.01,2013-08-02 20:40:00,
2013-08-02 15:45:00,90.7,76.8,29.80,SW,226,0.0,6.0,64,0.00,,---,0.25,VWS V14.01,2013-08-02 20:45:00,
2013-08-02 15:50:00,90.5,76.2,29.80,SSW,210,0.0,4.0,63,0.00,,---,0.25,VWS V14.01,2013-08-02 20:50:00,
2013-08-02 15:55:00,90.2,75.9,29.80,SW,224,0.0,4.0,63,0.00,,---,0.25,VWS V14.01,2013-08-02 20:55:00,
2013-08-02 16:00:00,90.0,76.7,29.80,WSW,243,0.0,4.0,65,0.00,,---,0.25,VWS V14.01,2013-08-02 21:00:00,
2013-08-02 16:05:00,90.0,76.7,29.80,SE,128,3.0,5.0,65,0.00,,---,0.25,VWS V14.01,2013-08-02 21:05:00,
2013-08-02 16:10:00,90.1,76.8,29.80,SSE,162,2.0,5.0,65,0.00,,---,0.25,VWS V14.01,2013-08-02 21:10:00,
2013-08-02 16:15:00,90.3,77.4,29.80,South,176,2.0,5.0,66,0.00,,---,0.25,VWS V14.01,2013-08-02 21:15:00,
2013-08-02 16:20:00,90.8,76.9,29.80,South,185,0.0,6.0,64,0.00,,---,0.25,VWS V14.01,2013-08-02 21:20:00,
2013-08-02 16:25:00,91.1,77.2,29.80,SSE,149,5.0,6.0,64,0.00,,---,0.25,VWS V14.01,2013-08-02 21:25:00,
2013-08-02 16:30:00,91.1,77.2,29.81,SW,229,0.0,6.0,64,0.00,,---,0.25,VWS V14.01,2013-08-02 21:30:00,
2013-08-02 16:35:00,91.4,77.5,29.81,SSW,210,0.0,5.0,64,0.00,,---,0.25,VWS V14.01,2013-08-02 21:35:00,
2013-08-02 16:40:00,91.8,76.9,29.81,SSW,194,4.0,7.0,62,0.00,,---,0.25,VWS V14.01,2013-08-02 21:40:00,
2013-08-02 16:45:00,91.9,77.0,29.80,SW,231,0.0,7.0,62,0.00,,---,0.25,VWS V14.01,2013-08-02 21:45:00,
2013-08-02 16:50:00,92.0,77.1,29.80,South,181,2.0,6.0,62,0.00,,---,0.25,VWS V14.01,2013-08-02 21:50:00,
2013-08-02 16:55:00,92.2,77.3,29.80,WSW,245,0.0,6.0,62,0.00,,---,0.25,VWS V14.01,2013-08-02 21:55:00,
2013-08-02 17:00:00,91.6,77.7,29.81,SW,233,0.0,6.0,64,0.00,,---,0.25,VWS V14.01,2013-08-02 22:00:00,
2013-08-02 17:05:00,91.3,77.4,29.80,SE,142,0.0,1.0,64,0.00,,---,0.25,VWS V14.01,2013-08-02 22:05:00,
2013-08-02 17:10:00,90.9,77.5,29.80,SSW,210,3.0,5.0,65,0.00,,---,0.25,VWS V14.01,2013-08-02 22:10:00,
2013-08-02 17:15:00,90.8,77.4,29.81,SSE,153,0.0,5.0,65,0.00,,---,0.25,VWS V14.01,2013-08-02 22:15:00,
2013-08-02 17:20:00,90.6,77.2,29.81,SSW,198,2.0,5.0,65,0.00,,---,0.25,VWS V14.01,2013-08-02 22:20:00,
2013-08-02 17:25:00,90.3,76.9,29.81,WSW,237,0.0,5.0,65,0.00,,---,0.25,VWS V14.01,2013-08-02 22:25:00,
2013-08-02 17:30:00,90.1,76.8,29.80,SE,145,0.0,5.0,65,0.00,,---,0.25,VWS V14.01,2013-08-02 22:30:00,
2013-08-02 17:35:00,90.0,76.7,29.80,SW,219,1.0,1.0,65,0.00,,---,0.25,VWS V14.01,2013-08-02 22:35:00,
2013-08-02 17:40:00,89.9,76.6,29.80,SSW,194,0.0,1.0,65,0.00,,---,0.25,VWS V14.01,2013-08-02 22:40:00,
2013-08-02 17:45:00,90.1,76.8,29.81,SE,132,0.0,1.0,65,0.00,,---,0.25,VWS V14.01,2013-08-02 22:45:00,
2013-08-02 17:50:00,90.0,76.7,29.81,East,87,4.0,4.0,65,0.00,,---,0.25,VWS V14.01,2013-08-02 22:50:00,
2013-08-02 17:55:00,89.9,76.6,29.81,ESE,110,3.0,4.0,65,0.00,,---,0.25,VWS V14.01,2013-08-02 22:55:00,
2013-08-02 18:00:00,89.8,76.5,29.81,SE,142,0.0,4.0,65,0.00,,---,0.25,VWS V14.01,2013-08-02 23:00:00,
2013-08-02 18:05:00,89.8,76.5,29.81,SE,139,0.0,2.0,65,0.00,,---,0.25,VWS V14.01,2013-08-02 23:05:00,
2013-08-02 18:10:00,89.7,76.4,29.81,East,82,1.0,2.0,65,0.00,,---,0.25,VWS V14.01,2013-08-02 23:10:00,
2013-08-02 18:15:00,89.6,76.3,29.81,ESE,104,0.0,2.0,65,0.00,,---,0.25,VWS V14.01,2013-08-02 23:15:00,
2013-08-02 18:20:00,89.5,76.7,29.81,East,91,2.0,2.0,66,0.00,,---,0.25,VWS V14.01,2013-08-02 23:20:00,
2013-08-02 18:25:00,89.4,76.1,29.81,ESE,117,1.0,2.0,65,0.00,,---,0.25,VWS V14.01,2013-08-02 23:25:00,
2013-08-02 18:30:00,89.3,76.5,29.81,SE,139,0.0,2.0,66,0.00,,---,0.25,VWS V14.01,2013-08-02 23:30:00,
2013-08-02 18:35:00,89.2,76.4,29.81,SE,131,0.0,0.0,66,0.00,,---,0.25,VWS V14.01,2013-08-02 23:35:00,
2013-08-02 18:40:00,89.1,76.3,29.81,SE,125,1.0,2.0,66,0.00,,---,0.25,VWS V14.01,2013-08-02 23:40:00,
2013-08-02 18:45:00,89.1,76.7,29.82,SSE,149,1.0,2.0,67,0.00,,---,0.25,VWS V14.01,2013-08-02 23:45:00,
2013-08-02 18:50:00,89.0,76.6,29.82,ENE,64,3.0,3.0,67,0.00,,---,0.25,VWS V14.01,2013-08-02 23:50:00,
2013-08-02 18:55:00,88.7,76.8,29.82,ENE,73,2.0,4.0,68,0.00,,---,0.25,VWS V14.01,2013-08-02 23:55:00,
2013-08-02 19:00:00,88.6,77.1,29.82,East,82,1.0,4.0,69,0.00,,---,0.25,VWS V14.01,2013-08-03 00:00:00,
2013-08-02 19:05:00,88.6,77.1,29.82,ENE,63,0.0,2.0,69,0.00,,---,0.25,VWS V14.01,2013-08-03 00:05:00,
2013-08-02 19:10:00,88.5,77.0,29.82,ENE,68,2.0,3.0,69,0.00,,---,0.25,VWS V14.01,2013-08-03 00:10:00,
2013-08-02 19:15:00,88.4,76.9,29.82,ENE,61,3.0,4.0,69,0.00,,---,0.25,VWS V14.01,2013-08-03 00:15:00,
2013-08-02 19:20:00,88.2,76.8,29.82,NE,55,3.0,4.0,69,0.00,,---,0.25,VWS V14.01,2013-08-03 00:20:00,
2013-08-02 19:25:00,88.0,77.0,29.82,East,85,1.0,5.0,70,0.00,,---,0.25,VWS V14.01,2013-08-03 00:25:00,
2013-08-02 19:30:00,88.0,77.4,29.82,East,93,1.0,5.0,71,0.00,,---,0.25,VWS V14.01,2013-08-03 00:30:00,
2013-08-02 19:35:00,87.8,77.7,29.82,East,80,1.0,4.0,72,0.00,,---,0.25,VWS V14.01,2013-08-03 00:35:00,
2013-08-02 19:40:00,87.4,78.1,29.83,NE,47,5.0,9.0,74,0.00,,---,0.25,VWS V14.01,2013-08-03 00:40:00,
2013-08-02 19:45:00,86.3,77.4,29.83,NE,55,5.0,11.0,75,0.00,,---,0.25,VWS V14.01,2013-08-03 00:45:00,
2013-08-02 19:50:00,84.9,76.9,29.83,East,99,7.0,14.0,77,0.00,,---,0.25,VWS V14.01,2013-08-03 00:50:00,
2013-08-02 19:55:00,84.0,76.8,29.83,ESE,109,5.0,14.0,79,0.00,,---,0.25,VWS V14.01,2013-08-03 00:55:00,
2013-08-02 20:00:00,83.7,76.5,29.83,East,87,8.0,14.0,79,0.00,,---,0.25,VWS V14.01,2013-08-03 01:00:00,
2013-08-02 20:05:00,83.4,76.6,29.84,SSE,155,4.0,12.0,80,0.00,,---,0.25,VWS V14.01,2013-08-03 01:05:00,
2013-08-02 20:10:00,83.1,76.3,29.84,NNE,33,12.0,15.0,80,0.00,,---,0.25,VWS V14.01,2013-08-03 01:10:00,
2013-08-02 20:15:00,82.8,76.0,29.84,East,96,7.0,15.0,80,0.00,,---,0.25,VWS V14.01,2013-08-03 01:15:00,
2013-08-02 20:20:00,82.5,76.1,29.84,ENE,75,6.0,14.0,81,0.00,,---,0.25,VWS V14.01,2013-08-03 01:20:00,
2013-08-02 20:25:00,82.3,75.9,29.84,NE,39,11.0,14.0,81,0.00,,---,0.25,VWS V14.01,2013-08-03 01:25:00,
2013-08-02 20:30:00,82.1,75.7,29.84,NE,35,8.0,14.0,81,0.00,,---,0.25,VWS V14.01,2013-08-03 01:30:00,
2013-08-02 20:34:00,81.9,75.9,29.84,ENE,57,8.0,10.0,82,0.00,,---,0.25,VWS V14.01,2013-08-03 01:34:00,
2013-08-02 20:39:00,81.6,75.6,29.84,East,84,5.0,12.0,82,0.00,,---,0.25,VWS V14.01,2013-08-03 01:39:00,
2013-08-02 20:44:00,81.5,75.5,29.84,ESE,104,2.0,12.0,82,0.00,,---,0.25,VWS V14.01,2013-08-03 01:44:00,
2013-08-02 20:49:00,81.4,75.4,29.84,ENE,65,7.0,10.0,82,0.00,,---,0.25,VWS V14.01,2013-08-03 01:49:00,
2013-08-02 20:54:00,81.3,75.3,29.85,East,79,6.0,10.0,82,0.00,,---,0.25,VWS V14.01,2013-08-03 01:54:00,
2013-08-02 20:59:00,81.1,75.4,29.84,NE,36,5.0,10.0,83,0.00,,---,0.25,VWS V14.01,2013-08-03 01:59:00,
2013-08-02 21:04:00,81.0,75.3,29.84,NE,47,5.0,11.0,83,0.00,,---,0.25,VWS V14.01,2013-08-03 02:04:00,
2013-08-02 21:09:00,80.7,75.1,29.84,East,83,3.0,11.0,83,0.00,,---,0.25,VWS V14.01,2013-08-03 02:09:00,
2013-08-02 21:14:00,80.6,75.3,29.85,ENE,65,7.0,12.0,84,0.00,,---,0.25,VWS V14.01,2013-08-03 02:14:00,
2013-08-02 21:19:00,80.5,75.2,29.85,ESE,122,2.0,9.0,84,0.00,,---,0.25,VWS V14.01,2013-08-03 02:19:00,
2013-08-02 21:24:00,80.4,75.1,29.85,ENE,64,4.0,10.0,84,0.00,,---,0.25,VWS V14.01,2013-08-03 02:24:00,
2013-08-02 21:29:00,80.3,75.0,29.85,East,91,6.0,12.0,84,0.00,,---,0.25,VWS V14.01,2013-08-03 02:29:00,
2013-08-02 21:34:00,80.2,74.9,29.84,SE,126,3.0,11.0,84,0.00,,---,0.25,VWS V14.01,2013-08-03 02:34:00,
2013-08-02 21:39:00,80.1,75.2,29.85,NE,49,5.0,13.0,85,0.00,,---,0.25,VWS V14.01,2013-08-03 02:39:00,
2013-08-02 21:44:00,80.0,75.1,29.85,SSE,148,2.0,13.0,85,0.00,,---,0.25,VWS V14.01,2013-08-03 02:44:00,
2013-08-02 21:49:00,79.9,75.0,29.84,East,95,4.0,10.0,85,0.00,,---,0.25,VWS V14.01,2013-08-03 02:49:00,
2013-08-02 21:54:00,79.9,75.0,29.85,ENE,69,6.0,12.0,85,0.00,,---,0.25,VWS V14.01,2013-08-03 02:54:00,
2013-08-02 21:59:00,79.9,75.0,29.86,ESE,123,1.0,12.0,85,0.00,,---,0.25,VWS V14.01,2013-08-03 02:59:00,
2013-08-02 22:04:00,79.9,75.0,29.88,SSE,158,3.0,9.0,85,0.00,,---,0.25,VWS V14.01,2013-08-03 03:04:00,
2013-08-02 22:09:00,79.9,74.6,29.88,NE,49,5.0,9.0,84,0.00,,---,0.25,VWS V14.01,2013-08-03 03:09:00,
2013-08-02 22:14:00,79.8,74.5,29.88,SE,136,2.0,10.0,84,0.00,,---,0.25,VWS V14.01,2013-08-03 03:14:00,
2013-08-02 22:19:00,79.8,74.5,29.89,East,100,1.0,7.0,84,0.00,,---,0.25,VWS V14.01,2013-08-03 03:19:00,
2013-08-02 22:24:00,79.8,74.5,29.88,East,84,2.0,7.0,84,0.00,,---,0.25,VWS V14.01,2013-08-03 03:24:00,
2013-08-02 22:29:00,79.6,74.7,29.88,ESE,118,5.0,9.0,85,0.00,,---,0.25,VWS V14.01,2013-08-03 03:29:00,
2013-08-02 22:34:00,79.5,74.6,29.88,ENE,71,8.0,9.0,85,0.00,,---,0.25,VWS V14.01,2013-08-03 03:34:00,
2013-08-02 22:39:00,79.4,74.5,29.88,ENE,58,2.0,10.0,85,0.00,,---,0.25,VWS V14.01,2013-08-03 03:39:00,
2013-08-02 22:44:00,79.3,74.8,29.88,ENE,75,2.0,10.0,86,0.00,,---,0.25,VWS V14.01,2013-08-03 03:44:00,
2013-08-02 22:49:00,79.3,74.8,29.87,East,100,2.0,6.0,86,0.00,,---,0.25,VWS V14.01,2013-08-03 03:49:00,
2013-08-02 22:54:00,79.2,74.7,29.90,SW,215,3.0,6.0,86,0.00,,---,0.25,VWS V14.01,2013-08-03 03:54:00,
2013-08-02 22:59:00,79.1,74.6,29.91,South,188,4.0,6.0,86,0.00,,---,0.25,VWS V14.01,2013-08-03 03:59:00,
2013-08-02 23:01:00,79.1,74.6,29.91,South,174,4.0,5.0,86,0.00,,---,0.25,VWS V14.01,2013-08-03 04:01:00,
2013-08-02 23:06:00,79.1,74.6,29.92,SSE,148,2.0,7.0,86,0.00,,---,0.25,VWS V14.01,2013-08-03 04:06:00,
2013-08-02 23:11:00,79.0,74.1,29.93,SW,235,5.0,9.0,85,0.00,,---,0.25,VWS V14.01,2013-08-03 04:11:00,
2013-08-02 23:16:00,78.0,71.7,29.93,SSE,168,2.0,5.0,81,0.00,,---,0.25,VWS V14.01,2013-08-03 04:16:00,
2013-08-02 23:20:00,77.0,70.7,29.92,SW,218,2.0,7.0,81,0.00,,---,0.25,VWS V14.01,2013-08-03 04:20:00,
2013-08-02 23:25:00,76.2,70.7,29.91,South,186,0.0,7.0,83,0.01,,---,0.26,VWS V14.01,2013-08-03 04:25:00,
2013-08-02 23:30:00,75.5,70.3,29.92,West,267,1.0,2.0,84,0.02,,---,0.27,VWS V14.01,2013-08-03 04:30:00,
2013-08-02 23:35:00,74.9,70.8,29.92,NW,308,0.0,3.0,87,0.02,,---,0.27,VWS V14.01,2013-08-03 04:35:00,
2013-08-02 23:40:00,74.2,70.4,29.92,WNW,297,0.0,3.0,88,0.05,,---,0.30,VWS V14.01,2013-08-03 04:40:00,
2013-08-02 23:45:00,73.8,70.4,29.92,WNW,295,0.0,0.0,89,0.06,,---,0.31,VWS V14.01,2013-08-03 04:45:00,
2013-08-02 23:50:00,73.5,70.4,29.92,WNW,294,0.0,0.0,90,0.06,,---,0.31,VWS V14.01,2013-08-03 04:50:00,
2013-08-02 23:55:00,73.6,70.8,29.92,SE,126,0.0,2.0,91,0.06,,---,0.31,VWS V14.01,2013-08-03 04:55:00,